Time;durP1;ratioP1;P1;durP2;ratioP2;P2;SDS_P1;SDS_P2;PMS_P1;PMS_P2;Temp;Humidity;BMP_temperature;BMP_pressure;BME280_temperature;BME280_humidity;BME280_pressure;Samples;Min_cycle;Max_cycle;Signal;HPM_P1;HPM_P2
2021/09/07 00:02:36;;;;;;;;;;;16.00;99.90;;;15.09;82.89;96399.50;10326460;28;2033;-74
2021/09/07 00:07:39;;;;;;;;;;;15.90;99.90;;;15.02;83.53;96390.09;10326651;28;2070;-76
2021/09/07 00:12:41;;;;;;;;;;;15.80;99.90;;;14.99;83.56;96394.16;10333492;28;1978;-75
2021/09/07 00:17:44;;;;;;;;;;;15.80;99.90;;;15.02;83.37;96388.19;10345820;28;2123;-75
2021/09/07 00:22:47;;;;;;;;;;;15.80;99.90;;;14.89;84.19;96388.88;10351816;28;2081;-76
2021/09/07 00:27:50;;;;;;;;;;;15.70;99.90;;;14.68;85.31;96395.56;10331940;28;1991;-76
2021/09/07 00:32:53;;;;;;;;;;;15.60;99.90;;;14.76;85.54;96378.69;10318909;28;1858;-76
2021/09/07 00:37:56;;;;;;;;;;;15.60;99.90;;;14.68;85.23;96384.72;10318653;28;2113;-76
2021/09/07 00:42:58;;;;;;;;;;;15.50;99.90;;;14.69;85.51;96378.22;10314968;28;2145;-76
2021/09/07 00:48:01;;;;;;;;;;;15.60;99.90;;;14.72;85.38;96366.84;10317049;28;1836;-75
2021/09/07 00:53:04;;;;;;;;;;;15.50;99.90;;;14.74;85.07;96370.06;10312778;28;2022;-76
2021/09/07 00:58:07;;;;;;;;;;;15.50;99.90;;;14.69;85.19;96367.41;10355199;28;2007;-75
2021/09/07 01:03:10;;;;;;;;;;;15.50;99.90;;;14.66;85.12;96373.41;10355462;28;1891;-74
2021/09/07 01:08:12;;;;;;;;;;;15.50;99.90;;;14.50;86.31;96383.53;10354722;28;2125;-75
2021/09/07 01:13:18;;;;;;;;;;;15.40;99.90;;;14.35;86.97;96379.03;10342147;28;2175;-76
2021/09/07 01:18:41;;;;;;;;;;;15.40;99.90;;;14.36;86.76;96372.53;10318438;28;2258;-76
2021/09/07 01:23:44;;;;;;;;;;;15.30;99.90;;;14.45;86.29;96367.34;10320660;28;2102;-76
2021/09/07 01:29:06;;;;;;;;;;;15.20;99.90;;;14.48;85.64;96356.75;10323745;28;2212;-76
2021/09/07 01:34:09;;;;;;;;;;;15.30;99.90;;;14.42;85.79;96363.28;10324299;28;2213;-76
2021/09/07 01:39:13;;;;;;;;;;;15.20;99.90;;;14.48;85.77;96358.66;10321953;28;2314;-76
2021/09/07 01:44:15;;;;;;;;;;;15.30;99.90;;;14.45;85.93;96351.09;10327653;28;2089;-76
2021/09/07 01:49:19;;;;;;;;;;;15.30;99.90;;;14.46;85.68;96347.31;10317370;28;2287;-75
2021/09/07 01:54:22;;;;;;;;;;;15.30;99.90;;;14.51;85.62;96350.00;10312600;28;2103;-76
2021/09/07 01:59:24;;;;;;;;;;;15.30;99.90;;;14.39;86.33;96347.63;10333537;28;2077;-75
2021/09/07 02:04:27;;;;;;;;;;;15.30;99.90;;;14.38;86.18;96351.44;10327549;28;2053;-75
2021/09/07 02:09:30;;;;;;;;;;;15.20;99.90;;;14.31;86.84;96350.91;10330522;28;2187;-75
2021/09/07 02:14:33;;;;;;;;;;;15.20;99.90;;;14.26;86.90;96359.09;10322791;28;2098;-75
2021/09/07 02:19:36;;;;;;;;;;;15.10;99.90;;;14.22;86.91;96360.75;10322068;28;2222;-75
2021/09/07 02:24:38;;;;;;;;;;;15.10;99.90;;;14.16;87.44;96353.75;10313041;28;2028;-75
2021/09/07 02:29:41;;;;;;;;;;;15.00;99.90;;;14.23;87.10;96349.63;10314407;28;2136;-74
2021/09/07 02:34:44;;;;;;;;;;;15.00;99.90;;;14.07;87.83;96357.06;10315950;28;2086;-75
2021/09/07 02:39:47;;;;;;;;;;;15.00;99.90;;;13.91;89.04;96355.53;10321286;28;2105;-75
2021/09/07 02:44:50;;;;;;;;;;;14.90;99.90;;;13.93;88.90;96360.66;10313932;28;2051;-77
2021/09/07 02:49:53;;;;;;;;;;;14.80;99.90;;;14.00;88.28;96347.66;10315645;28;2219;-76
2021/09/07 02:54:56;;;;;;;;;;;14.80;99.90;;;13.83;88.55;96345.34;10323010;28;2193;-76
2021/09/07 02:59:58;;;;;;;;;;;14.80;99.90;;;13.86;88.22;96339.34;10310573;28;2150;-74
2021/09/07 03:05:01;;;;;;;;;;;14.80;99.90;;;13.92;88.27;96340.94;10323787;28;2165;-76
2021/09/07 03:10:04;;;;;;;;;;;14.70;99.90;;;14.01;87.48;96338.47;10324598;28;2102;-76
2021/09/07 03:15:07;;;;;;;;;;;14.80;99.90;;;14.11;86.87;96348.38;10318848;28;2110;-75
2021/09/07 03:20:11;;;;;;;;;;;14.90;99.90;;;14.09;86.71;96350.56;10312863;28;2274;-76
2021/09/07 03:25:14;;;;;;;;;;;14.90;99.90;;;14.05;86.96;96345.72;10317163;28;2237;-75
2021/09/07 03:30:16;;;;;;;;;;;15.00;99.90;;;14.16;86.53;96337.53;10329476;28;2206;-74
2021/09/07 03:35:19;;;;;;;;;;;15.00;99.90;;;14.11;86.91;96345.69;10318151;28;2156;-73
2021/09/07 03:40:22;;;;;;;;;;;15.00;99.90;;;13.97;87.63;96338.22;10308092;28;2098;-75
2021/09/07 03:45:25;;;;;;;;;;;14.90;99.90;;;13.88;88.27;96331.78;10306492;28;2111;-75
2021/09/07 03:50:28;;;;;;;;;;;14.80;99.90;;;13.83;87.97;96329.13;10309823;28;2078;-75
2021/09/07 03:55:31;;;;;;;;;;;14.70;99.90;;;13.82;88.31;96343.72;10311706;28;2201;-76
2021/09/07 04:00:34;;;;;;;;;;;14.70;99.90;;;13.89;87.88;96343.41;10313097;28;2082;-75
2021/09/07 04:05:37;;;;;;;;;;;14.70;99.90;;;13.72;88.39;96341.06;10317444;28;2160;-74
2021/09/07 04:10:40;;;;;;;;;;;14.60;99.90;;;13.75;88.55;96351.34;10326259;28;2097;-77
2021/09/07 04:15:43;;;;;;;;;;;14.60;99.90;;;13.74;88.33;96352.41;10324230;28;2119;-75
2021/09/07 04:20:45;;;;;;;;;;;14.60;99.90;;;13.50;89.18;96350.38;10328382;28;2214;-76
2021/09/07 04:25:48;;;;;;;;;;;14.40;99.90;;;13.71;88.79;96347.56;10329541;28;2209;-77
2021/09/07 04:30:51;;;;;;;;;;;14.40;99.90;;;13.70;88.42;96346.75;10326949;28;2129;-77
2021/09/07 04:35:54;;;;;;;;;;;14.60;99.90;;;13.80;87.96;96337.78;10338507;28;2174;-77
2021/09/07 04:40:57;;;;;;;;;;;14.60;99.90;;;13.75;88.16;96349.44;10307934;28;2038;-77
2021/09/07 04:46:00;;;;;;;;;;;14.60;99.90;;;13.74;87.87;96358.63;10314148;28;2170;-76
2021/09/07 04:51:03;;;;;;;;;;;14.60;99.90;;;13.65;88.63;96352.19;10294762;28;2209;-77
2021/09/07 04:56:06;;;;;;;;;;;14.60;99.90;;;13.80;87.65;96345.88;10323984;28;2142;-77
2021/09/07 05:01:08;;;;;;;;;;;14.70;99.90;;;13.65;88.41;96349.50;10310430;28;2252;-76
2021/09/07 05:06:12;;;;;;;;;;;14.60;99.90;;;13.66;88.57;96353.00;10313793;28;2141;-77
2021/09/07 05:11:14;;;;;;;;;;;14.60;99.90;;;13.74;88.23;96368.63;10321133;28;2130;-77
2021/09/07 05:16:17;;;;;;;;;;;14.60;99.90;;;13.68;88.79;96364.34;10303349;28;2212;-76
2021/09/07 05:21:20;;;;;;;;;;;14.60;99.90;;;13.53;90.03;96367.91;10312492;28;2090;-77
2021/09/07 05:26:23;;;;;;;;;;;14.50;99.90;;;13.70;88.78;96372.97;10320679;28;2106;-76
2021/09/07 05:31:26;;;;;;;;;;;14.50;99.90;;;13.64;89.45;96376.78;10314241;28;2115;-76
2021/09/07 05:36:29;;;;;;;;;;;14.50;99.90;;;13.38;90.84;96381.50;10318908;28;2089;-79
2021/09/07 05:41:32;;;;;;;;;;;14.50;99.90;;;13.63;90.17;96372.47;10326106;28;2066;-75
2021/09/07 05:46:35;;;;;;;;;;;14.40;99.90;;;13.74;88.82;96380.25;10319734;28;2074;-77
2021/09/07 05:51:38;;;;;;;;;;;14.50;99.90;;;13.85;88.11;96381.00;10325887;28;2103;-77
2021/09/07 05:56:40;;;;;;;;;;;14.60;99.90;;;14.06;87.69;96387.09;10322530;28;2203;-76
2021/09/07 06:01:43;;;;;;;;;;;14.70;99.90;;;14.25;87.11;96392.59;10318186;28;2151;-76
2021/09/07 06:06:47;;;;;;;;;;;14.90;99.90;;;14.59;84.23;96390.75;10323120;28;2148;-76
2021/09/07 06:11:50;;;;;;;;;;;15.20;99.90;;;15.16;81.67;96387.50;10317453;28;4023;-76
2021/09/07 06:17:16;;;;;;;;;;;15.50;99.90;;;15.65;79.27;96395.38;10315532;28;2830;-76
2021/09/07 06:22:22;;;;;;;;;;;15.90;99.90;;;15.90;78.07;96395.03;10317655;28;2039;-75
2021/09/07 06:27:25;;;;;;;;;;;16.30;99.90;;;16.04;77.33;96400.53;10318163;28;2290;-76
2021/09/07 06:32:28;;;;;;;;;;;16.60;99.90;;;16.26;76.15;96388.28;10314414;28;2741;-75
2021/09/07 06:37:31;;;;;;;;;;;16.80;99.90;;;16.62;75.05;96397.47;10320689;28;2086;-74
2021/09/07 06:42:34;;;;;;;;;;;17.10;99.90;;;16.85;73.37;96400.38;10319527;28;2110;-77
2021/09/07 06:47:41;;;;;;;;;;;17.30;99.90;;;17.05;73.00;96405.47;10296318;28;3578;-74
2021/09/07 06:52:46;;;;;;;;;;;17.40;99.90;;;17.25;71.45;96393.41;10325974;28;3667;-75
2021/09/07 06:57:49;;;;;;;;;;;17.70;99.90;;;17.71;70.00;96401.47;10327538;28;3482;-79
2021/09/07 07:02:53;;;;;;;;;;;17.90;99.90;;;17.61;68.26;96396.19;10311802;28;2062;-76
2021/09/07 07:07:57;;;;;;;;;;;18.30;99.90;;;17.91;68.04;96388.56;10329537;28;3498;-76
2021/09/07 07:13:01;;;;;;;;;;;18.30;99.90;;;18.32;66.61;96388.44;10325262;28;2060;-78
2021/09/07 07:18:04;;;;;;;;;;;18.60;99.90;;;18.08;67.30;96394.16;10304544;28;2134;-77
2021/09/07 07:23:07;;;;;;;;;;;18.70;99.90;;;18.37;66.89;96407.38;10315565;28;2106;-76
2021/09/07 07:28:10;;;;;;;;;;;18.80;99.90;;;18.07;67.99;96408.88;10324643;28;2125;-75
2021/09/07 07:33:14;;;;;;;;;;;18.80;99.90;;;18.11;67.76;96409.88;10324352;28;2337;-74
2021/09/07 07:38:17;;;;;;;;;;;18.70;99.90;;;18.32;67.29;96407.47;10327263;28;2073;-76
2021/09/07 07:43:24;;;;;;;;;;;18.80;99.90;;;19.08;65.18;96399.38;10318699;28;2121;-75
2021/09/07 07:48:27;;;;;;;;;;;19.20;99.90;;;18.67;64.85;96405.06;10324830;28;2137;-75
2021/09/07 07:53:30;;;;;;;;;;;19.50;99.90;;;18.50;65.60;96405.72;10318584;28;2324;-76
2021/09/07 07:58:32;;;;;;;;;;;19.30;99.90;;;18.69;66.07;96406.34;10321174;28;2369;-77
2021/09/07 08:03:35;;;;;;;;;;;19.30;99.90;;;18.89;65.71;96396.88;10325097;28;2031;-77
2021/09/07 08:08:39;;;;;;;;;;;19.50;99.90;;;18.86;66.57;96402.94;10329927;28;2113;-77
2021/09/07 08:13:41;;;;;;;;;;;19.50;99.90;;;18.98;67.29;96400.47;10335766;28;2090;-78
2021/09/07 08:18:44;;;;;;;;;;;19.60;99.90;;;18.80;67.38;96394.09;10311115;28;1904;-77
2021/09/07 08:23:47;;;;;;;;;;;19.60;99.90;;;19.12;65.67;96394.91;10317494;28;2062;-77
2021/09/07 08:28:50;;;;;;;;;;;19.70;99.90;;;19.52;64.54;96403.09;10310727;28;3558;-79
2021/09/07 08:33:53;;;;;;;;;;;19.90;99.90;;;19.78;63.64;96392.31;10325243;28;2034;-77
2021/09/07 08:38:56;;;;;;;;;;;20.20;99.90;;;20.09;62.72;96393.00;10316105;28;2117;-79
2021/09/07 08:43:58;;;;;;;;;;;20.50;99.90;;;19.92;61.73;96395.72;10324013;28;2137;-76
2021/09/07 08:49:01;;;;;;;;;;;20.70;99.90;;;20.07;60.37;96397.19;10315164;28;2034;-76
2021/09/07 08:54:04;;;;;;;;;;;20.60;99.90;;;20.53;59.91;96391.13;10314010;28;3512;-76
2021/09/07 08:59:07;;;;;;;;;;;20.90;99.90;;;20.30;57.56;96401.38;10300086;28;3814;-75
2021/09/07 09:04:10;;;;;;;;;;;21.10;99.90;;;20.65;57.75;96404.13;10313191;28;3249;-77
2021/09/07 09:09:13;;;;;;;;;;;21.10;99.90;;;20.37;58.33;96407.16;10315550;28;2065;-77
2021/09/07 09:14:16;;;;;;;;;;;21.40;99.90;;;20.72;57.40;96409.91;10311123;28;3329;-74
2021/09/07 09:19:19;;;;;;;;;;;21.30;99.90;;;20.75;57.57;96412.00;10305862;28;2039;-75
2021/09/07 09:24:23;;;;;;;;;;;21.60;99.90;;;20.82;54.61;96408.78;10313195;28;1987;-77
2021/09/07 09:29:26;;;;;;;;;;;21.60;99.90;;;20.94;51.91;96417.94;10322147;28;1848;-77
2021/09/07 09:34:29;;;;;;;;;;;21.70;99.90;;;20.90;53.97;96414.22;10334363;28;2026;-77
2021/09/07 09:39:32;;;;;;;;;;;21.70;99.90;;;21.30;53.89;96416.72;10335341;28;2102;-75
2021/09/07 09:44:35;;;;;;;;;;;21.80;99.90;;;21.23;54.39;96427.34;10306689;28;2088;-76
2021/09/07 09:49:38;;;;;;;;;;;22.00;99.90;;;21.62;52.00;96412.56;10305335;28;1900;-76
2021/09/07 09:54:41;;;;;;;;;;;22.10;99.90;;;21.56;50.02;96409.22;10319178;28;2047;-74
2021/09/07 09:59:44;;;;;;;;;;;22.40;99.90;;;21.58;48.13;96406.19;10320537;28;2023;-75
2021/09/07 10:04:50;;;;;;;;;;;22.40;99.90;;;21.76;50.46;96398.69;10312221;28;1950;-75
2021/09/07 10:09:53;;;;;;;;;;;22.60;99.90;;;22.05;49.57;96392.38;10316791;28;3599;-76
2021/09/07 10:15:01;;;;;;;;;;;22.80;99.90;;;22.23;49.33;96387.63;10321132;28;3139;-77
2021/09/07 10:20:14;;;;;;;;;;;23.00;99.90;;;22.28;49.69;96384.69;10321651;28;2066;-78
2021/09/07 10:25:17;;;;;;;;;;;23.00;99.90;;;22.37;47.23;96377.22;10319615;28;1933;-78
2021/09/07 10:30:20;;;;;;;;;;;23.20;99.90;;;22.13;48.57;96381.41;10305082;28;3089;-77
2021/09/07 10:35:22;;;;;;;;;;;23.20;99.90;;;22.57;47.84;96370.09;10335376;28;3454;-78
2021/09/07 10:40:25;;;;;;;;;;;23.20;99.90;;;22.94;47.67;96368.31;10330142;28;3418;-78
2021/09/07 10:45:28;;;;;;;;;;;23.50;99.90;;;22.97;46.05;96362.19;10331707;28;2047;-77
2021/09/07 10:50:31;;;;;;;;;;;23.70;99.90;;;22.28;46.72;96357.31;10337145;28;2343;-77
2021/09/07 10:55:34;;;;;;;;;;;23.50;99.90;;;22.21;49.33;96362.53;10306719;28;1984;-78
2021/09/07 11:00:37;;;;;;;;;;;23.20;99.90;;;22.41;47.47;96356.25;10329258;28;2051;-77
2021/09/07 11:05:41;;;;;;;;;;;23.10;99.90;;;22.75;43.02;96348.81;10329457;28;3637;-77
2021/09/07 11:10:43;;;;;;;;;;;23.50;99.90;;;23.26;42.82;96352.16;10321614;28;3537;-77
2021/09/07 11:15:46;;;;;;;;;;;23.80;99.90;;;23.51;42.11;96336.53;10322312;28;2319;-78
2021/09/07 11:20:49;;;;;;;;;;;24.20;99.90;;;23.24;43.22;96344.28;10332628;28;2312;-77
2021/09/07 11:25:52;;;;;;;;;;;24.30;99.90;;;23.45;43.67;96344.19;10332593;28;3549;-78
2021/09/07 11:30:55;;;;;;;;;;;24.10;99.90;;;23.26;44.79;96336.50;10329966;28;2390;-74
2021/09/07 11:35:58;;;;;;;;;;;24.20;99.90;;;23.30;43.64;96342.13;10322300;28;2090;-77
2021/09/07 11:41:00;;;;;;;;;;;24.10;99.90;;;23.73;44.14;96334.16;10318032;28;1905;-75
2021/09/07 11:46:03;;;;;;;;;;;24.30;99.90;;;23.52;43.26;96335.38;10325062;28;2066;-76
2021/09/07 11:51:06;;;;;;;;;;;24.40;99.90;;;23.43;45.00;96332.75;10324520;28;1784;-77
2021/09/07 11:56:09;;;;;;;;;;;24.30;99.90;;;23.46;42.63;96330.13;10323807;28;1987;-75
2021/09/07 12:01:12;;;;;;;;;;;24.30;99.90;;;23.14;42.87;96320.03;10298909;28;1919;-77
2021/09/07 12:06:15;;;;;;;;;;;24.10;99.90;;;23.85;42.17;96313.31;10311820;28;2051;-76
2021/09/07 12:11:18;;;;;;;;;;;24.30;99.90;;;24.44;40.65;96312.72;10310037;28;3485;-79
2021/09/07 12:16:21;;;;;;;;;;;25.00;99.90;;;24.18;40.54;96315.88;10329711;28;2026;-78
2021/09/07 12:21:24;;;;;;;;;;;25.00;99.90;;;23.49;40.96;96317.66;10299686;28;1844;-77
2021/09/07 12:26:26;;;;;;;;;;;24.50;99.90;;;23.71;37.69;96314.47;10327350;28;2003;-76
2021/09/07 12:31:30;;;;;;;;;;;24.50;99.90;;;23.79;38.89;96309.19;10317627;28;2113;-77
2021/09/07 12:36:32;;;;;;;;;;;24.60;99.90;;;23.97;36.67;96299.53;10317779;28;2212;-77
2021/09/07 12:41:35;;;;;;;;;;;24.50;99.90;;;24.09;35.26;96302.25;10327794;28;2054;-77
2021/09/07 12:46:38;;;;;;;;;;;24.80;97.30;;;24.54;34.88;96302.00;10339926;28;2097;-78
2021/09/07 12:51:41;;;;;;;;;;;25.10;96.70;;;24.77;36.47;96285.75;10314581;28;2125;-75
2021/09/07 12:56:44;;;;;;;;;;;25.20;97.90;;;23.84;40.50;96300.72;10304615;28;2025;-76
2021/09/07 13:01:47;;;;;;;;;;;25.10;99.90;;;24.17;41.70;96293.06;10318817;28;2027;-76
2021/09/07 13:06:50;;;;;;;;;;;25.00;99.90;;;23.75;42.25;96280.84;10303116;28;2120;-76
2021/09/07 13:11:53;;;;;;;;;;;24.90;99.90;;;24.00;42.11;96282.41;10312091;28;1922;-76
2021/09/07 13:16:56;;;;;;;;;;;24.80;99.90;;;23.96;40.97;96281.47;10311448;28;2248;-76
2021/09/07 13:21:59;;;;;;;;;;;24.90;99.90;;;23.95;41.63;96277.94;10305322;28;2371;-77
2021/09/07 13:27:01;;;;;;;;;;;24.80;99.90;;;23.93;41.11;96266.50;10306532;28;2050;-77
2021/09/07 13:32:04;;;;;;;;;;;24.80;99.90;;;23.89;40.42;96260.09;10307282;28;2018;-77
2021/09/07 13:37:07;;;;;;;;;;;24.90;99.90;;;23.62;41.05;96256.16;10305421;28;2074;-77
2021/09/07 13:42:10;;;;;;;;;;;24.70;99.90;;;23.95;41.06;96257.91;10312964;28;1847;-76
2021/09/07 13:47:13;;;;;;;;;;;24.70;99.90;;;24.06;41.22;96253.53;10318338;28;2019;-78
2021/09/07 13:52:16;;;;;;;;;;;24.80;99.90;;;23.76;41.17;96255.00;10318739;28;2054;-76
2021/09/07 13:57:19;;;;;;;;;;;24.80;99.90;;;23.49;41.67;96257.31;10332661;28;1820;-78
2021/09/07 14:02:21;;;;;;;;;;;24.40;99.90;;;23.44;42.37;96252.03;10328976;28;2065;-76
2021/09/07 14:07:26;;;;;;;;;;;24.40;99.90;;;23.50;41.10;96252.63;10328274;28;1950;-77
2021/09/07 14:12:28;;;;;;;;;;;24.40;99.90;;;23.40;42.47;96246.44;10316229;28;2042;-75
2021/09/07 14:17:31;;;;;;;;;;;24.20;99.90;;;23.10;42.45;96243.16;10309105;28;2150;-76
2021/09/07 14:22:34;;;;;;;;;;;24.10;99.90;;;23.17;42.25;96235.16;10323512;28;2051;-78
2021/09/07 14:27:37;;;;;;;;;;;24.00;99.90;;;23.11;40.94;96222.81;10317786;28;2098;-77
2021/09/07 14:32:40;;;;;;;;;;;24.00;99.50;;;23.32;40.84;96225.41;10323181;28;2031;-78
2021/09/07 14:37:43;;;;;;;;;;;24.10;99.50;;;23.23;40.57;96230.25;10347420;28;1852;-76
2021/09/07 14:42:46;;;;;;;;;;;24.10;98.90;;;23.14;40.62;96219.38;10324118;28;2026;-77
2021/09/07 14:47:51;;;;;;;;;;;24.00;98.40;;;23.35;40.71;96221.19;10351969;28;2098;-75
2021/09/07 14:52:54;;;;;;;;;;;24.10;98.90;;;23.35;40.80;96216.53;10330369;28;2058;-75
2021/09/07 14:57:56;;;;;;;;;;;24.20;98.50;;;23.33;39.83;96220.72;10322764;28;2042;-75
2021/09/07 15:02:59;;;;;;;;;;;24.10;97.60;;;23.09;40.38;96208.63;10306880;28;1805;-77
2021/09/07 15:08:02;;;;;;;;;;;24.10;97.70;;;22.96;41.11;96219.94;10315505;28;2066;-76
2021/09/07 15:13:05;;;;;;;;;;;23.90;98.00;;;22.77;41.24;96217.72;10324097;28;2074;-77
2021/09/07 15:18:08;;;;;;;;;;;23.70;98.00;;;22.69;42.02;96211.22;10336174;28;1863;-75
2021/09/07 15:23:11;;;;;;;;;;;23.60;98.90;;;22.52;41.93;96209.50;10366447;28;1793;-75
2021/09/07 15:28:14;;;;;;;;;;;23.50;98.60;;;22.37;43.01;96208.19;10354046;28;1904;-76
2021/09/07 15:33:17;;;;;;;;;;;23.30;99.60;;;22.02;44.02;96213.19;10354147;28;2129;-76
2021/09/07 15:38:19;;;;;;;;;;;23.00;99.90;;;21.80;45.00;96210.81;10349152;28;1918;-75
2021/09/07 15:43:22;;;;;;;;;;;22.80;99.90;;;21.62;45.61;96203.88;10338104;28;2073;-77
2021/09/07 15:48:25;;;;;;;;;;;22.60;99.90;;;21.64;46.16;96210.63;10325642;28;2086;-77
2021/09/07 15:53:31;;;;;;;;;;;22.50;99.90;;;21.65;46.58;96211.41;10329995;28;2051;-77
2021/09/07 15:58:37;;;;;;;;;;;22.50;99.90;;;21.61;46.72;96199.53;10322712;28;1795;-76
2021/09/07 16:03:40;;;;;;;;;;;22.50;99.90;;;21.47;46.23;96200.59;10316743;28;2034;-76
2021/09/07 16:08:43;;;;;;;;;;;22.40;99.90;;;21.52;46.73;96188.66;10314233;28;2114;-75
2021/09/07 16:13:46;;;;;;;;;;;22.40;99.90;;;21.38;46.76;96191.69;10331104;28;2082;-76
2021/09/07 16:18:49;;;;;;;;;;;22.30;99.90;;;21.38;46.64;96186.22;10350983;28;2073;-75
2021/09/07 16:23:51;;;;;;;;;;;22.30;99.90;;;21.33;47.09;96189.13;10349336;28;1875;-76
2021/09/07 16:28:54;;;;;;;;;;;22.20;99.90;;;21.28;47.41;96176.44;10361106;28;2078;-75
2021/09/07 16:33:57;;;;;;;;;;;22.20;99.90;;;21.17;47.93;96177.13;10338936;28;2035;-74
2021/09/07 16:39:01;;;;;;;;;;;22.10;99.90;;;21.13;48.40;96165.28;10313129;28;2035;-74
2021/09/07 16:44:03;;;;;;;;;;;22.10;99.90;;;20.89;48.23;96163.97;10320591;28;2119;-75
2021/09/07 16:49:06;;;;;;;;;;;21.90;99.90;;;20.75;48.63;96157.94;10312566;28;2027;-75
2021/09/07 16:54:28;;;;;;;;;;;21.80;99.90;;;20.60;48.86;96169.41;10316281;28;1956;-76
2021/09/07 16:59:30;;;;;;;;;;;21.60;99.90;;;20.44;49.45;96164.47;10321265;28;2280;-78
2021/09/07 17:04:33;;;;;;;;;;;21.50;99.90;;;20.30;50.12;96161.16;10319861;28;2067;-76
2021/09/07 17:09:36;;;;;;;;;;;21.40;99.90;;;20.15;51.07;96159.72;10327215;28;2121;-77
2021/09/07 17:14:39;;;;;;;;;;;21.20;99.90;;;19.94;51.81;96158.81;10311528;28;1583;-77
2021/09/07 17:19:42;;;;;;;;;;;21.10;99.90;;;19.80;52.42;96161.75;10309648;28;1694;-77
2021/09/07 17:24:45;;;;;;;;;;;20.90;99.90;;;19.61;53.13;96162.09;10293843;28;1622;-76
2021/09/07 17:29:47;;;;;;;;;;;20.80;99.90;;;19.40;54.40;96172.81;10309448;28;1989;-75
2021/09/07 17:35:00;;;;;;;;;;;20.60;99.90;;;19.27;55.06;96162.81;10313944;28;1615;-77
2021/09/07 17:45:24;;;;;;;;;;;20.20;99.90;;;18.90;57.15;96159.59;10309320;28;1906;-77
2021/09/07 17:50:28;;;;;;;;;;;20.10;99.90;;;18.72;57.75;96157.13;10311407;28;1587;-75
2021/09/07 17:55:48;;;;;;;;;;;19.90;99.90;;;18.52;58.33;96163.94;10318142;28;1296;-76
2021/09/07 18:00:51;;;;;;;;;;;19.70;99.90;;;18.42;59.08;96166.91;10303658;28;1567;-75
2021/09/07 18:05:58;;;;;;;;;;;19.60;99.90;;;18.25;59.98;96173.88;10308906;28;1914;-75
2021/09/07 18:11:01;;;;;;;;;;;19.40;99.90;;;18.13;60.33;96173.66;10311872;28;2122;-75
2021/09/07 18:16:04;;;;;;;;;;;19.30;99.90;;;18.01;61.56;96176.97;10315493;28;2070;-74
2021/09/07 18:21:07;;;;;;;;;;;19.20;99.90;;;17.85;62.83;96183.09;10325310;28;1982;-74
2021/09/07 18:26:10;;;;;;;;;;;19.00;99.90;;;17.74;62.76;96183.34;10319254;28;2047;-75
2021/09/07 18:31:13;;;;;;;;;;;18.90;99.90;;;17.67;63.89;96182.13;10311730;28;2003;-76
2021/09/07 18:36:17;;;;;;;;;;;18.80;99.90;;;17.67;64.99;96193.00;10317684;28;1924;-76
2021/09/07 18:41:24;;;;;;;;;;;18.70;99.90;;;17.55;64.94;96194.34;10310891;28;2164;-76
2021/09/07 18:46:27;;;;;;;;;;;18.70;99.90;;;17.49;66.46;96192.06;10309008;28;2089;-75
2021/09/07 18:51:30;;;;;;;;;;;18.60;99.90;;;17.42;66.33;96197.13;10321731;28;2058;-76
2021/09/07 18:56:32;;;;;;;;;;;18.50;99.90;;;17.37;67.04;96202.66;10319193;28;2291;-76
2021/09/07 19:01:35;;;;;;;;;;;18.40;99.90;;;17.27;67.93;96195.56;10315813;28;2409;-76
2021/09/07 19:06:38;;;;;;;;;;;18.30;99.90;;;17.27;67.97;96190.13;10323769;28;2058;-75
2021/09/07 19:11:41;;;;;;;;;;;18.30;99.90;;;17.30;68.02;96184.06;10325627;28;2207;-75
2021/09/07 19:16:44;;;;;;;;;;;18.30;99.90;;;17.15;68.60;96193.38;10310519;28;2047;-76
2021/09/07 19:21:47;;;;;;;;;;;18.30;99.90;;;17.11;68.39;96192.34;10314837;28;2039;-76
2021/09/07 19:26:50;;;;;;;;;;;18.20;99.90;;;17.02;68.30;96188.78;10312762;28;1922;-75
2021/09/07 19:31:52;;;;;;;;;;;18.00;99.90;;;16.90;70.01;96191.19;10310081;28;2015;-76
2021/09/07 19:36:56;;;;;;;;;;;17.90;99.90;;;16.91;69.65;96184.66;10309997;28;1910;-75
2021/09/07 19:41:58;;;;;;;;;;;17.90;99.90;;;16.84;70.47;96186.97;10312772;28;2090;-75
2021/09/07 19:47:01;;;;;;;;;;;17.90;99.90;;;16.75;70.50;96193.13;10298797;28;1919;-76
2021/09/07 19:52:04;;;;;;;;;;;17.80;99.90;;;16.70;69.45;96185.06;10310607;28;1983;-76
2021/09/07 19:57:07;;;;;;;;;;;17.70;99.90;;;16.66;70.58;96197.59;10307086;28;2094;-76
2021/09/07 20:02:10;;;;;;;;;;;17.70;99.90;;;16.65;70.43;96196.00;10313301;28;2092;-75
2021/09/07 20:07:13;;;;;;;;;;;17.60;99.90;;;16.50;70.86;96185.47;10322678;28;2098;-76
2021/09/07 20:12:15;;;;;;;;;;;17.50;99.90;;;16.42;71.33;96186.97;10310834;28;1999;-76
2021/09/07 20:17:18;;;;;;;;;;;17.50;99.90;;;16.43;71.28;96183.13;10313438;28;2218;-76
2021/09/07 20:22:21;;;;;;;;;;;17.40;99.90;;;16.37;71.64;96191.69;10308309;28;1792;-75
2021/09/07 20:27:24;;;;;;;;;;;17.40;99.90;;;16.34;72.31;96186.84;10312236;28;2078;-77
2021/09/07 20:32:27;;;;;;;;;;;17.30;99.90;;;16.39;71.93;96175.91;10308664;28;1792;-76
2021/09/07 20:37:30;;;;;;;;;;;17.30;99.90;;;16.15;72.75;96179.56;10306301;28;2023;-76
2021/09/07 20:42:33;;;;;;;;;;;17.30;99.90;;;16.19;72.94;96172.47;10312300;28;2074;-76
2021/09/07 20:47:35;;;;;;;;;;;17.20;99.90;;;15.90;72.69;96182.72;10309634;28;1922;-75
2021/09/07 20:52:38;;;;;;;;;;;17.10;99.90;;;15.78;73.40;96177.81;10311804;28;2617;-76
2021/09/07 20:57:41;;;;;;;;;;;16.90;99.90;;;15.79;74.01;96179.41;10310877;28;2121;-76
2021/09/07 21:02:44;;;;;;;;;;;16.80;99.90;;;15.65;75.11;96184.00;10301549;28;2098;-76
2021/09/07 21:07:47;;;;;;;;;;;16.70;99.90;;;15.57;75.40;96185.41;10309825;28;2129;-75
2021/09/07 21:12:50;;;;;;;;;;;16.70;99.90;;;15.64;75.85;96182.34;10308983;28;2034;-75
2021/09/07 21:17:52;;;;;;;;;;;16.60;99.90;;;15.39;76.67;96183.53;10309240;28;2097;-75
2021/09/07 21:22:55;;;;;;;;;;;16.50;99.90;;;15.27;78.08;96184.00;10313934;28;2089;-74
2021/09/07 21:27:58;;;;;;;;;;;16.40;99.90;;;15.28;77.75;96179.38;10307743;28;1978;-76
2021/09/07 21:33:01;;;;;;;;;;;16.30;99.90;;;15.50;77.29;96182.28;10311108;28;2019;-76
2021/09/07 21:38:04;;;;;;;;;;;16.40;99.90;;;15.46;77.60;96172.31;10308569;28;1932;-75
2021/09/07 21:43:07;;;;;;;;;;;16.50;99.90;;;15.35;78.25;96172.47;10312210;28;2038;-75
2021/09/07 21:48:09;;;;;;;;;;;16.40;99.90;;;15.23;78.83;96165.91;10327765;28;1978;-75
2021/09/07 21:53:12;;;;;;;;;;;16.30;99.90;;;15.13;79.50;96173.06;10321670;28;2129;-76
2021/09/07 21:58:15;;;;;;;;;;;16.20;99.90;;;14.90;80.88;96168.53;10327585;28;2031;-75
2021/09/07 22:03:18;;;;;;;;;;;16.00;99.90;;;15.01;80.80;96159.16;10323305;28;2010;-76
2021/09/07 22:08:21;;;;;;;;;;;16.00;99.90;;;15.10;80.11;96168.25;10320158;28;2104;-75
2021/09/07 22:13:24;;;;;;;;;;;16.10;99.90;;;15.16;79.65;96165.47;10318214;28;1939;-77
2021/09/07 22:18:27;;;;;;;;;;;16.10;99.90;;;15.06;80.01;96161.00;10318805;28;1859;-75
2021/09/07 22:23:30;;;;;;;;;;;16.10;99.90;;;15.16;79.64;96154.63;10315009;28;2105;-75
2021/09/07 22:28:33;;;;;;;;;;;16.10;99.90;;;15.01;80.45;96156.44;10315131;28;2308;-74
2021/09/07 22:33:35;;;;;;;;;;;16.00;99.90;;;14.96;80.39;96145.72;10310743;28;2699;-75
2021/09/07 22:38:38;;;;;;;;;;;16.00;99.90;;;15.00;80.71;96152.13;10317269;28;2106;-76
2021/09/07 22:43:41;;;;;;;;;;;15.90;99.90;;;14.91;80.12;96137.66;10315552;28;2104;-75
2021/09/07 22:48:44;;;;;;;;;;;15.90;99.90;;;14.87;80.68;96142.03;10326357;28;2193;-74
2021/09/07 22:53:46;;;;;;;;;;;15.90;99.90;;;14.69;80.50;96137.41;10320373;28;2137;-77
2021/09/07 22:58:49;;;;;;;;;;;15.80;99.90;;;14.77;80.35;96136.78;10318061;28;2161;-75
2021/09/07 23:03:52;;;;;;;;;;;15.80;99.90;;;14.78;80.54;96135.66;10328575;28;2162;-74
2021/09/07 23:08:55;;;;;;;;;;;15.70;99.90;;;14.69;80.53;96129.28;10321228;28;2101;-75
2021/09/07 23:13:58;;;;;;;;;;;15.70;99.90;;;14.57;81.27;96135.94;10301890;28;2139;-75
2021/09/07 23:19:01;;;;;;;;;;;15.60;99.90;;;14.66;80.65;96121.75;10320283;28;2161;-75